Time;durP1;ratioP1;P1;durP2;ratioP2;P2;SDS_P1;SDS_P2;PMS_P1;PMS_P2;Temp;Humidity;BMP_temperature;BMP_pressure;BME280_temperature;BME280_humidity;BME280_pressure;Samples;Min_cycle;Max_cycle;Signal;HPM_P1;HPM_P2
2022/10/29 00:01:53;;;;;;;;;;;22.20;51.70;;;;;;5059932;28;19999;-89
2022/10/29 00:04:18;;;;;;;;;;;22.20;51.70;;;;;;5071777;28;20355;-88
2022/10/29 00:06:44;;;;;;;;;;;22.20;51.80;;;;;;5064597;28;19964;-89
2022/10/29 00:09:10;;;;;;;;;;;22.30;51.90;;;;;;5055646;28;19913;-89
2022/10/29 00:11:36;;;;;;;;;;;22.30;51.80;;;;;;5051147;28;19909;-90
2022/10/29 00:14:01;;;;;;;;;;;22.30;51.80;;;;;;5050859;28;19990;-90
2022/10/29 00:16:28;;;;;;;;;;;22.30;51.70;;;;;;5050747;28;19920;-88
2022/10/29 00:18:54;;;;;;;;;;;22.30;51.70;;;;;;5052749;28;20010;-88
2022/10/29 00:21:21;;;;;;;;;;;22.30;51.60;;;;;;5051034;28;20044;-90
2022/10/29 00:23:47;;;;;;;;;;;22.30;51.60;;;;;;5050602;28;19917;-88
2022/10/29 00:26:12;;;;;;;;;;;22.30;51.70;;;;;;5058096;28;19931;-89
2022/10/29 00:28:38;;;;;;;;;;;22.30;51.70;;;;;;5054809;28;20340;-91
2022/10/29 00:31:05;;;;;;;;;;;22.30;51.70;;;;;;5051333;28;20007;-88
2022/10/29 00:33:31;;;;;;;;;;;22.30;51.60;;;;;;5063232;28;20386;-90
2022/10/29 00:36:04;;;;;;;;;;;22.30;51.60;;;;;;5056906;28;19948;-88
2022/10/29 00:38:31;;;;;;;;;;;22.30;51.50;;;;;;5057016;28;19916;-89
2022/10/29 00:40:57;;;;;;;;;;;22.20;51.50;;;;;;5061046;28;20307;-87
2022/10/29 00:43:23;;;;;;;;;;;22.20;51.50;;;;;;5059044;28;19913;-87
2022/10/29 00:45:55;;;;;;;;;;;22.10;51.50;;;;;;5058403;28;19932;-88
2022/10/29 00:48:22;;;;;;;;;;;22.10;51.60;;;;;;5055932;28;19947;-90
2022/10/29 00:50:48;;;;;;;;;;;22.00;51.60;;;;;;5060827;28;19917;-88
2022/10/29 00:53:15;;;;;;;;;;;22.00;51.60;;;;;;5061604;28;19920;-89
2022/10/29 00:55:40;;;;;;;;;;;21.80;51.60;;;;;;5059656;28;20661;-89
2022/10/29 00:58:06;;;;;;;;;;;21.80;51.60;;;;;;5058632;28;19916;-89
2022/10/29 01:00:32;;;;;;;;;;;21.70;51.70;;;;;;5055742;28;19932;-87
2022/10/29 01:02:58;;;;;;;;;;;21.60;51.70;;;;;;5052241;28;19913;-88
2022/10/29 01:05:24;;;;;;;;;;;21.50;51.80;;;;;;5057203;28;19964;-87
2022/10/29 01:07:50;;;;;;;;;;;21.50;51.80;;;;;;5061813;28;20004;-87
2022/10/29 01:10:16;;;;;;;;;;;21.40;52.00;;;;;;5054003;28;19971;-88
2022/10/29 01:12:54;;;;;;;;;;;21.30;52.00;;;;;;5055168;28;19924;-88
2022/10/29 01:15:25;;;;;;;;;;;21.30;52.10;;;;;;5051812;28;20063;-89
2022/10/29 01:18:03;;;;;;;;;;;21.20;52.20;;;;;;5053497;28;19974;-87
2022/10/29 01:20:47;;;;;;;;;;;21.30;52.30;;;;;;5053482;28;19916;-89
2022/10/29 01:23:32;;;;;;;;;;;21.30;52.60;;;;;;5056961;28;19999;-89
2022/10/29 01:26:16;;;;;;;;;;;21.20;52.70;;;;;;5055731;28;19924;-89
2022/10/29 01:29:01;;;;;;;;;;;21.20;52.70;;;;;;5054308;28;19997;-90
2022/10/29 01:31:35;;;;;;;;;;;21.20;52.70;;;;;;5060337;28;19944;-87
2022/10/29 01:34:15;;;;;;;;;;;21.20;52.70;;;;;;5061222;28;19916;-87
2022/10/29 01:36:52;;;;;;;;;;;21.10;52.80;;;;;;5056818;28;19924;-89
2022/10/29 01:39:41;;;;;;;;;;;21.10;52.90;;;;;;5053575;28;20033;-88
2022/10/29 01:42:15;;;;;;;;;;;21.10;53.00;;;;;;5051416;28;20479;-88
2022/10/29 01:44:45;;;;;;;;;;;21.00;53.00;;;;;;5059072;28;20302;-88
2022/10/29 01:47:31;;;;;;;;;;;21.10;53.10;;;;;;5060547;28;20426;-90
2022/10/29 01:49:59;;;;;;;;;;;21.00;53.00;;;;;;5050002;28;19917;-90
2022/10/29 01:52:26;;;;;;;;;;;20.90;53.00;;;;;;5054739;28;20006;-89
2022/10/29 01:54:52;;;;;;;;;;;20.90;53.00;;;;;;5049642;28;20111;-88
2022/10/29 01:57:34;;;;;;;;;;;20.80;52.90;;;;;;5054603;28;19999;-89
2022/10/29 02:00:08;;;;;;;;;;;20.80;52.90;;;;;;5053296;28;20016;-89
2022/10/29 02:03:09;;;;;;;;;;;20.70;53.00;;;;;;5062383;28;19923;-88
2022/10/29 02:05:38;;;;;;;;;;;20.60;53.00;;;;;;5047703;28;19921;-90
2022/10/29 02:08:22;;;;;;;;;;;20.50;53.20;;;;;;5056000;28;19917;-89
2022/10/29 02:10:59;;;;;;;;;;;20.40;53.30;;;;;;5064563;28;19993;-88
2022/10/29 02:13:29;;;;;;;;;;;20.30;53.40;;;;;;5058934;28;19972;-87
2022/10/29 02:15:55;;;;;;;;;;;20.30;53.60;;;;;;5053424;28;19917;-87
2022/10/29 02:18:21;;;;;;;;;;;20.20;53.60;;;;;;5053471;28;19931;-89
2022/10/29 02:20:47;;;;;;;;;;;20.20;53.60;;;;;;5063439;28;19920;-88
2022/10/29 02:23:13;;;;;;;;;;;20.20;53.60;;;;;;5064224;28;20015;-89
2022/10/29 02:25:39;;;;;;;;;;;20.10;53.60;;;;;;5054662;28;19917;-90
2022/10/29 02:28:05;;;;;;;;;;;20.10;53.60;;;;;;5052504;28;19917;-89
2022/10/29 02:30:30;;;;;;;;;;;20.00;53.70;;;;;;5058668;28;19923;-90
2022/10/29 02:32:56;;;;;;;;;;;19.90;53.80;;;;;;5057817;28;19917;-88
2022/10/29 02:35:22;;;;;;;;;;;19.90;54.00;;;;;;5059741;28;19921;-88
2022/10/29 02:37:48;;;;;;;;;;;19.90;54.10;;;;;;5058028;28;19913;-89
2022/10/29 02:40:14;;;;;;;;;;;19.90;54.20;;;;;;5062643;28;19978;-88
2022/10/29 02:42:40;;;;;;;;;;;19.80;54.20;;;;;;5061101;28;19923;-88
2022/10/29 02:45:06;;;;;;;;;;;19.90;54.30;;;;;;5054591;28;19924;-88
2022/10/29 02:47:31;;;;;;;;;;;19.90;54.30;;;;;;5052374;28;19920;-87
2022/10/29 02:49:57;;;;;;;;;;;20.00;54.30;;;;;;5053819;28;19960;-89
2022/10/29 02:52:23;;;;;;;;;;;20.00;54.30;;;;;;5065219;28;19916;-89
2022/10/29 02:54:48;;;;;;;;;;;19.90;54.30;;;;;;5061976;28;19923;-87
2022/10/29 02:57:14;;;;;;;;;;;19.90;54.30;;;;;;5066780;28;19913;-89
2022/10/29 02:59:40;;;;;;;;;;;19.90;54.40;;;;;;5066697;28;19974;-88
2022/10/29 03:02:06;;;;;;;;;;;19.80;54.40;;;;;;5066762;28;19917;-88
2022/10/29 03:04:32;;;;;;;;;;;19.80;54.50;;;;;;5065749;28;19923;-89
2022/10/29 03:06:58;;;;;;;;;;;19.80;54.50;;;;;;5057132;28;19928;-90
2022/10/29 03:09:24;;;;;;;;;;;19.70;54.50;;;;;;5054173;28;19920;-88
2022/10/29 03:11:50;;;;;;;;;;;19.70;54.60;;;;;;5071461;28;19913;-88
2022/10/29 03:14:16;;;;;;;;;;;19.70;54.70;;;;;;5071939;28;20203;-89
2022/10/29 03:16:41;;;;;;;;;;;19.70;54.70;;;;;;5055443;28;19919;-87
2022/10/29 03:19:07;;;;;;;;;;;19.60;54.70;;;;;;5054016;28;19961;-88
2022/10/29 03:21:33;;;;;;;;;;;19.60;54.80;;;;;;5063198;28;19925;-88
2022/10/29 03:23:59;;;;;;;;;;;19.50;54.90;;;;;;5059135;28;20395;-88
2022/10/29 03:26:25;;;;;;;;;;;19.50;55.00;;;;;;5059270;28;19933;-90
2022/10/29 03:28:50;;;;;;;;;;;19.50;55.00;;;;;;5065773;28;19912;-90
2022/10/29 03:31:16;;;;;;;;;;;19.50;55.00;;;;;;5050519;28;20307;-87
2022/10/29 03:33:42;;;;;;;;;;;19.50;55.10;;;;;;5063738;28;19920;-88
2022/10/29 03:36:08;;;;;;;;;;;19.50;55.20;;;;;;5059510;28;19917;-88
2022/10/29 03:38:34;;;;;;;;;;;19.50;55.20;;;;;;5059440;28;19920;-90
2022/10/29 03:41:00;;;;;;;;;;;19.40;55.30;;;;;;5055062;28;20354;-87
2022/10/29 03:43:25;;;;;;;;;;;19.40;55.20;;;;;;5057332;28;20007;-89
2022/10/29 03:45:52;;;;;;;;;;;19.40;55.20;;;;;;5052413;28;19978;-89
2022/10/29 03:48:17;;;;;;;;;;;19.40;55.30;;;;;;5064671;28;19946;-88
2022/10/29 03:50:43;;;;;;;;;;;19.30;55.20;;;;;;5056815;28;19924;-89
2022/10/29 03:53:09;;;;;;;;;;;19.30;55.20;;;;;;5057465;28;19919;-89
2022/10/29 03:55:35;;;;;;;;;;;19.30;55.20;;;;;;5059698;28;20275;-89
2022/10/29 03:58:00;;;;;;;;;;;19.30;55.30;;;;;;5064987;28;20274;-88
2022/10/29 04:00:26;;;;;;;;;;;19.30;55.40;;;;;;5058047;28;20000;-87
2022/10/29 04:02:52;;;;;;;;;;;19.30;55.40;;;;;;5059742;28;19913;-87
2022/10/29 04:05:17;;;;;;;;;;;19.30;55.50;;;;;;5055625;28;20257;-88
2022/10/29 04:07:43;;;;;;;;;;;19.30;55.50;;;;;;5055306;28;19931;-88
2022/10/29 04:10:09;;;;;;;;;;;19.30;55.60;;;;;;5059299;28;20412;-88
2022/10/29 04:12:35;;;;;;;;;;;19.40;55.60;;;;;;5060003;28;19916;-88
2022/10/29 04:15:00;;;;;;;;;;;19.40;55.70;;;;;;5051297;28;19917;-90
2022/10/29 04:17:26;;;;;;;;;;;19.40;55.80;;;;;;5057633;28;19919;-90
2022/10/29 04:19:51;;;;;;;;;;;19.30;55.90;;;;;;5062935;28;19928;-88
2022/10/29 04:22:17;;;;;;;;;;;19.40;55.90;;;;;;5058026;28;19913;-88
2022/10/29 04:24:43;;;;;;;;;;;19.40;56.00;;;;;;5064616;28;20020;-88
2022/10/29 04:27:08;;;;;;;;;;;19.30;56.00;;;;;;5063789;28;20003;-89
2022/10/29 04:29:34;;;;;;;;;;;19.30;56.00;;;;;;5057688;28;20059;-89
2022/10/29 04:32:00;;;;;;;;;;;19.30;55.90;;;;;;5066127;28;20433;-89
2022/10/29 04:34:25;;;;;;;;;;;19.30;55.80;;;;;;5054978;28;20093;-88
2022/10/29 04:36:52;;;;;;;;;;;19.30;55.80;;;;;;5065144;28;19913;-89
2022/10/29 04:39:18;;;;;;;;;;;19.20;55.90;;;;;;5051760;28;19913;-88
2022/10/29 04:41:46;;;;;;;;;;;19.20;56.00;;;;;;5062048;28;19923;-90
2022/10/29 04:44:11;;;;;;;;;;;19.20;56.10;;;;;;5050397;28;19921;-89
2022/10/29 04:46:37;;;;;;;;;;;19.10;56.10;;;;;;5056188;28;19921;-88
2022/10/29 04:49:03;;;;;;;;;;;19.10;56.10;;;;;;5064237;28;20286;-87
2022/10/29 04:51:29;;;;;;;;;;;19.10;56.10;;;;;;5051359;28;20359;-88
2022/10/29 04:53:54;;;;;;;;;;;19.10;56.10;;;;;;5055582;28;19920;-89
2022/10/29 04:56:20;;;;;;;;;;;19.10;56.10;;;;;;5053142;28;19936;-88
2022/10/29 04:58:46;;;;;;;;;;;19.10;56.20;;;;;;5065069;28;19916;-88
2022/10/29 05:01:11;;;;;;;;;;;19.10;56.60;;;;;;5052841;28;19944;-87
2022/10/29 05:03:37;;;;;;;;;;;19.10;57.20;;;;;;5058013;28;19913;-87
2022/10/29 05:06:03;;;;;;;;;;;19.10;58.00;;;;;;5051767;28;19925;-88
2022/10/29 05:08:29;;;;;;;;;;;19.20;58.40;;;;;;5053088;28;20291;-89
2022/10/29 05:10:54;;;;;;;;;;;19.20;58.50;;;;;;5061344;28;19924;-89
2022/10/29 05:13:20;;;;;;;;;;;19.20;58.70;;;;;;5057676;28;20787;-90
2022/10/29 05:15:50;;;;;;;;;;;19.30;58.60;;;;;;5054249;28;19920;-88
2022/10/29 05:18:15;;;;;;;;;;;19.30;58.50;;;;;;5059599;28;19924;-88
2022/10/29 05:20:41;;;;;;;;;;;19.30;58.40;;;;;;5054440;28;19917;-89
2022/10/29 05:23:07;;;;;;;;;;;19.40;58.30;;;;;;5051065;28;19924;-88
2022/10/29 05:25:34;;;;;;;;;;;19.40;58.10;;;;;;5064957;28;20530;-89
2022/10/29 05:28:00;;;;;;;;;;;19.40;58.00;;;;;;5055483;28;19927;-88
2022/10/29 05:30:26;;;;;;;;;;;19.40;57.90;;;;;;5051502;28;20090;-90
2022/10/29 05:32:52;;;;;;;;;;;19.40;57.90;;;;;;5054809;28;20039;-89
2022/10/29 05:35:17;;;;;;;;;;;19.40;57.80;;;;;;5051155;28;19916;-90
2022/10/29 05:37:49;;;;;;;;;;;19.40;57.80;;;;;;5055323;28;20311;-89
2022/10/29 05:40:15;;;;;;;;;;;19.40;57.90;;;;;;5062916;28;19917;-89
2022/10/29 05:42:40;;;;;;;;;;;19.30;58.20;;;;;;5049268;28;19924;-88
2022/10/29 05:45:06;;;;;;;;;;;19.30;58.20;;;;;;5057081;28;19924;-88
2022/10/29 05:47:32;;;;;;;;;;;19.30;58.10;;;;;;5049418;28;19921;-88
2022/10/29 05:49:58;;;;;;;;;;;19.30;58.00;;;;;;5057137;28;20348;-89
2022/10/29 05:52:24;;;;;;;;;;;19.30;58.00;;;;;;5058429;28;19921;-88
2022/10/29 05:54:50;;;;;;;;;;;19.30;58.10;;;;;;5055464;28;20352;-89
2022/10/29 05:57:15;;;;;;;;;;;19.30;58.20;;;;;;5055819;28;19920;-88
2022/10/29 05:59:41;;;;;;;;;;;19.30;58.20;;;;;;5056878;28;19924;-88
2022/10/29 06:02:08;;;;;;;;;;;19.30;58.20;;;;;;5055703;28;20383;-87
2022/10/29 06:04:33;;;;;;;;;;;19.20;58.60;;;;;;5057216;28;20573;-87
2022/10/29 06:06:59;;;;;;;;;;;19.20;58.70;;;;;;5052450;28;20012;-89
2022/10/29 06:09:25;;;;;;;;;;;19.20;58.60;;;;;;5051849;28;20020;-88
2022/10/29 06:11:51;;;;;;;;;;;19.20;58.50;;;;;;5061477;28;19917;-89
2022/10/29 06:14:16;;;;;;;;;;;19.20;58.50;;;;;;5062001;28;19909;-89
2022/10/29 06:16:42;;;;;;;;;;;19.20;58.60;;;;;;5050275;28;20386;-90
2022/10/29 06:19:08;;;;;;;;;;;19.20;58.60;;;;;;5049944;28;19928;-89
2022/10/29 06:21:34;;;;;;;;;;;19.20;58.70;;;;;;5059977;28;19967;-89
2022/10/29 06:24:00;;;;;;;;;;;19.20;58.90;;;;;;5053068;28;19971;-89
2022/10/29 06:26:25;;;;;;;;;;;19.20;58.80;;;;;;5059645;28;19928;-89
2022/10/29 06:28:51;;;;;;;;;;;19.10;58.80;;;;;;5062652;28;19909;-89
2022/10/29 06:31:17;;;;;;;;;;;19.10;58.90;;;;;;5070943;28;20005;-89
2022/10/29 06:33:43;;;;;;;;;;;19.10;58.90;;;;;;5069069;28;19923;-87
2022/10/29 06:36:08;;;;;;;;;;;19.10;58.90;;;;;;5064106;28;19968;-89
2022/10/29 06:38:34;;;;;;;;;;;19.10;58.80;;;;;;5055303;28;19913;-89
2022/10/29 06:41:00;;;;;;;;;;;19.10;58.80;;;;;;5062699;28;19923;-88
2022/10/29 06:43:26;;;;;;;;;;;19.10;58.90;;;;;;5069529;28;19919;-89
2022/10/29 06:45:51;;;;;;;;;;;19.00;58.90;;;;;;5067079;28;19995;-88
2022/10/29 06:48:17;;;;;;;;;;;19.00;59.10;;;;;;5072341;28;19908;-89
2022/10/29 06:50:43;;;;;;;;;;;19.00;59.40;;;;;;5055362;28;19925;-89
2022/10/29 06:53:11;;;;;;;;;;;19.00;59.50;;;;;;5060127;28;19912;-88
2022/10/29 06:55:37;;;;;;;;;;;19.00;59.60;;;;;;5063385;28;19916;-88
2022/10/29 06:58:06;;;;;;;;;;;19.00;59.60;;;;;;5062302;28;20051;-89
2022/10/29 07:00:32;;;;;;;;;;;19.10;59.70;;;;;;5055352;28;19917;-88
2022/10/29 07:03:02;;;;;;;;;;;19.10;59.70;;;;;;5079256;28;19909;-87
2022/10/29 07:05:27;;;;;;;;;;;19.20;59.70;;;;;;5075639;28;19924;-90
2022/10/29 07:07:54;;;;;;;;;;;19.30;59.60;;;;;;5063518;28;19990;-89
2022/10/29 07:10:19;;;;;;;;;;;19.50;59.60;;;;;;5063108;28;19924;-89
2022/10/29 07:12:45;;;;;;;;;;;19.60;59.40;;;;;;5081984;28;19912;-87
2022/10/29 07:15:11;;;;;;;;;;;19.70;59.40;;;;;;5066785;28;20359;-88
2022/10/29 07:17:37;;;;;;;;;;;19.80;59.30;;;;;;5070884;28;20511;-90
2022/10/29 07:20:04;;;;;;;;;;;19.90;59.20;;;;;;5069941;28;19917;-89
2022/10/29 07:22:30;;;;;;;;;;;20.00;59.10;;;;;;5074821;28;19909;-89
2022/10/29 07:24:56;;;;;;;;;;;20.10;59.10;;;;;;5064788;28;19924;-90
2022/10/29 07:27:22;;;;;;;;;;;20.20;59.00;;;;;;5066435;28;19923;-90
2022/10/29 07:29:47;;;;;;;;;;;20.20;58.90;;;;;;5062989;28;20404;-89
2022/10/29 07:32:13;;;;;;;;;;;20.20;58.90;;;;;;5064512;28;19924;-89
2022/10/29 07:34:43;;;;;;;;;;;20.30;58.90;;;;;;5055456;28;19921;-90
2022/10/29 07:37:11;;;;;;;;;;;20.30;58.80;;;;;;5065232;28;19928;-87
2022/10/29 07:39:36;;;;;;;;;;;20.40;58.80;;;;;;5058593;28;19917;-90
2022/10/29 07:42:02;;;;;;;;;;;20.50;58.80;;;;;;5055948;28;19996;-89
2022/10/29 07:44:28;;;;;;;;;;;20.60;58.80;;;;;;5057140;28;19920;-89
2022/10/29 07:46:54;;;;;;;;;;;20.70;58.80;;;;;;5068288;28;20393;-89
2022/10/29 07:49:19;;;;;;;;;;;20.80;58.80;;;;;;5073821;28;19973;-89
2022/10/29 07:51:46;;;;;;;;;;;21.00;58.80;;;;;;5069261;28;19919;-88
2022/10/29 07:54:12;;;;;;;;;;;21.10;58.80;;;;;;5059996;28;20007;-90
2022/10/29 07:56:41;;;;;;;;;;;21.30;58.80;;;;;;5058930;28;20289;-89
2022/10/29 07:59:08;;;;;;;;;;;21.40;58.80;;;;;;5059322;28;20521;-88
2022/10/29 08:01:34;;;;;;;;;;;21.60;58.80;;;;;;5061538;28;19927;-89
2022/10/29 08:03:59;;;;;;;;;;;21.70;58.70;;;;;;5054261;28;20402;-90
2022/10/29 08:06:25;;;;;;;;;;;21.80;58.30;;;;;;5068794;28;19931;-90
2022/10/29 08:08:51;;;;;;;;;;;21.90;58.20;;;;;;5059125;28;20346;-89
2022/10/29 08:11:16;;;;;;;;;;;22.00;58.20;;;;;;5062146;28;19974;-90
2022/10/29 08:13:43;;;;;;;;;;;22.10;58.30;;;;;;5053722;28;19985;-90
2022/10/29 08:16:08;;;;;;;;;;;22.20;58.30;;;;;;5050892;28;20016;-89
2022/10/29 08:18:34;;;;;;;;;;;22.30;58.40;;;;;;5065818;28;20011;-89
2022/10/29 08:21:02;;;;;;;;;;;22.40;58.60;;;;;;5062870;28;19913;-88
2022/10/29 08:23:28;;;;;;;;;;;22.70;58.80;;;;;;5056277;28;19928;-89
2022/10/29 08:25:56;;;;;;;;;;;22.90;58.60;;;;;;5062033;28;19943;-87
2022/10/29 08:28:21;;;;;;;;;;;23.10;58.20;;;;;;5063255;28;19917;-89
2022/10/29 08:30:50;;;;;;;;;;;23.30;57.90;;;;;;5059970;28;20004;-88
2022/10/29 08:33:19;;;;;;;;;;;23.50;57.60;;;;;;5059490;28;19916;-90
2022/10/29 08:35:45;;;;;;;;;;;23.60;57.10;;;;;;5072092;28;19920;-90
2022/10/29 08:38:11;;;;;;;;;;;23.80;57.00;;;;;;5070286;28;20018;-89
2022/10/29 08:40:53;;;;;;;;;;;23.80;56.80;;;;;;5058820;28;19925;-90
2022/10/29 08:43:42;;;;;;;;;;;23.90;56.70;;;;;;5075262;28;19969;-89
2022/10/29 08:46:15;;;;;;;;;;;24.00;56.60;;;;;;5068822;28;19928;-88
2022/10/29 08:48:54;;;;;;;;;;;24.10;56.40;;;;;;5070390;28;19982;-89
2022/10/29 08:51:20;;;;;;;;;;;24.10;56.20;;;;;;5069870;28;19921;-89
2022/10/29 08:53:47;;;;;;;;;;;24.10;55.90;;;;;;5069166;28;19912;-89
2022/10/29 08:56:18;;;;;;;;;;;24.10;55.70;;;;;;5068042;28;20031;-89
2022/10/29 08:58:51;;;;;;;;;;;24.10;55.70;;;;;;5067070;28;19963;-87
2022/10/29 09:01:19;;;;;;;;;;;24.00;55.40;;;;;;5071778;28;19923;-87
2022/10/29 09:03:45;;;;;;;;;;;24.00;55.20;;;;;;5071632;28;19959;-88
2022/10/29 09:06:26;;;;;;;;;;;24.00;55.20;;;;;;5070048;28;19983;-89
2022/10/29 09:09:08;;;;;;;;;;;24.00;55.20;;;;;;5058829;28;20015;-89
2022/10/29 09:11:47;;;;;;;;;;;24.00;55.30;;;;;;5061661;28;19964;-88
2022/10/29 09:14:27;;;;;;;;;;;24.00;55.30;;;;;;5053165;28;19916;-89
2022/10/29 09:16:58;;;;;;;;;;;24.10;55.20;;;;;;5048061;28;19927;-89
2022/10/29 09:19:32;;;;;;;;;;;24.20;55.00;;;;;;5053392;28;21063;-88
2022/10/29 09:22:06;;;;;;;;;;;24.30;55.00;;;;;;5058215;28;19927;-90
2022/10/29 09:24:37;;;;;;;;;;;24.50;54.80;;;;;;5063278;28;19925;-89
2022/10/29 09:27:15;;;;;;;;;;;24.60;55.00;;;;;;5058806;28;19956;-88
2022/10/29 09:29:43;;;;;;;;;;;24.90;55.10;;;;;;5047349;28;19944;-88
2022/10/29 09:32:11;;;;;;;;;;;25.10;54.90;;;;;;5068579;28;19935;-89
2022/10/29 09:34:46;;;;;;;;;;;25.40;54.50;;;;;;5066764;28;19924;-89
2022/10/29 09:37:14;;;;;;;;;;;25.70;53.90;;;;;;5069767;28;19920;-89
2022/10/29 09:39:40;;;;;;;;;;;25.90;53.30;;;;;;5067133;28;19919;-89
2022/10/29 09:42:15;;;;;;;;;;;26.20;52.60;;;;;;5068567;28;19918;-90
2022/10/29 09:44:41;;;;;;;;;;;26.40;52.40;;;;;;5060508;28;19928;-89
2022/10/29 09:47:17;;;;;;;;;;;26.70;51.20;;;;;;5054295;28;19924;-89
2022/10/29 09:50:02;;;;;;;;;;;27.00;50.70;;;;;;5050419;28;19917;-90
2022/10/29 09:52:35;;;;;;;;;;;27.20;50.20;;;;;;5058556;28;19923;-89
2022/10/29 09:55:04;;;;;;;;;;;27.30;49.40;;;;;;5070825;28;20523;-88
2022/10/29 09:57:30;;;;;;;;;;;27.50;48.80;;;;;;5067993;28;20003;-88
2022/10/29 09:59:58;;;;;;;;;;;27.70;48.60;;;;;;5066467;28;20013;-89
2022/10/29 10:02:26;;;;;;;;;;;27.80;48.30;;;;;;5071392;28;20424;-89
2022/10/29 10:04:59;;;;;;;;;;;27.90;47.60;;;;;;5068741;28;19917;-90
2022/10/29 10:07:26;;;;;;;;;;;28.00;47.20;;;;;;5068514;28;20355;-88
2022/10/29 10:09:56;;;;;;;;;;;28.10;47.10;;;;;;5068611;28;20274;-89
2022/10/29 10:12:24;;;;;;;;;;;28.30;47.10;;;;;;5068347;28;19916;-88
2022/10/29 10:15:00;;;;;;;;;;;28.50;46.10;;;;;;5067909;28;20441;-90
2022/10/29 10:17:26;;;;;;;;;;;28.60;46.00;;;;;;5066529;28;19927;-89
2022/10/29 10:19:52;;;;;;;;;;;28.60;45.90;;;;;;5059040;28;20015;-89
2022/10/29 10:22:18;;;;;;;;;;;28.80;45.60;;;;;;5048179;28;19920;-87
2022/10/29 10:24:44;;;;;;;;;;;28.80;44.80;;;;;;5046521;28;19925;-88
2022/10/29 10:27:33;;;;;;;;;;;28.70;44.30;;;;;;5049822;28;19931;-89
2022/10/29 10:30:10;;;;;;;;;;;28.70;44.10;;;;;;5045248;28;19947;-88
2022/10/29 10:32:35;;;;;;;;;;;28.60;44.50;;;;;;5056282;28;19952;-90
2022/10/29 10:35:02;;;;;;;;;;;28.90;45.20;;;;;;5069608;28;20434;-89
2022/10/29 10:37:30;;;;;;;;;;;29.30;45.00;;;;;;5075475;28;20011;-88
2022/10/29 10:40:04;;;;;;;;;;;29.60;44.20;;;;;;5082308;28;19922;-89
2022/10/29 10:42:35;;;;;;;;;;;29.80;43.90;;;;;;5091783;28;19915;-88
2022/10/29 10:45:11;;;;;;;;;;;29.80;43.20;;;;;;5071880;28;19916;-88
2022/10/29 10:47:40;;;;;;;;;;;29.90;43.20;;;;;;5050807;28;20398;-89
2022/10/29 10:50:16;;;;;;;;;;;30.00;43.00;;;;;;5056571;28;20243;-89
2022/10/29 10:52:42;;;;;;;;;;;30.10;42.60;;;;;;5059933;28;20402;-88
2022/10/29 10:55:15;;;;;;;;;;;30.00;42.80;;;;;;5069295;28;19920;-89
2022/10/29 10:57:45;;;;;;;;;;;30.10;42.80;;;;;;5070281;28;20362;-90
2022/10/29 11:00:14;;;;;;;;;;;30.10;43.00;;;;;;5073289;28;20282;-89
2022/10/29 11:02:49;;;;;;;;;;;30.30;42.80;;;;;;5069916;28;19925;-88
2022/10/29 11:05:21;;;;;;;;;;;30.60;42.70;;;;;;5070854;28;19917;-88
2022/10/29 11:08:06;;;;;;;;;;;30.90;42.30;;;;;;5072347;28;19924;-88
2022/10/29 11:10:50;;;;;;;;;;;31.10;41.80;;;;;;5073523;28;19924;-89
2022/10/29 11:13:19;;;;;;;;;;;31.10;41.50;;;;;;5072253;28;19922;-88
2022/10/29 11:15:56;;;;;;;;;;;31.10;41.30;;;;;;5076804;28;20295;-90
2022/10/29 11:18:29;;;;;;;;;;;31.30;41.60;;;;;;5085641;28;20357;-90
2022/10/29 11:21:08;;;;;;;;;;;31.80;40.90;;;;;;5071151;28;19916;-87
2022/10/29 11:23:33;;;;;;;;;;;32.20;39.90;;;;;;5069789;28;19924;-88
2022/10/29 11:26:06;;;;;;;;;;;32.40;39.20;;;;;;5076175;28;20003;-88
2022/10/29 11:28:37;;;;;;;;;;;32.50;39.10;;;;;;5072131;28;20011;-88
2022/10/29 11:31:22;;;;;;;;;;;32.50;39.20;;;;;;5071233;28;20426;-88
2022/10/29 11:33:51;;;;;;;;;;;32.50;39.00;;;;;;5073130;28;20006;-89
2022/10/29 11:36:24;;;;;;;;;;;32.40;39.00;;;;;;5072682;28;19917;-88
2022/10/29 11:38:52;;;;;;;;;;;32.50;38.90;;;;;;5071329;28;19956;-88
2022/10/29 11:41:21;;;;;;;;;;;32.40;38.40;;;;;;5062006;28;19924;-89
2022/10/29 11:43:46;;;;;;;;;;;32.20;38.40;;;;;;5053886;28;19924;-89
2022/10/29 11:46:31;;;;;;;;;;;32.00;38.70;;;;;;5052055;28;19932;-89
2022/10/29 11:48:57;;;;;;;;;;;31.90;38.90;;;;;;5058571;28;19925;-87
2022/10/29 11:51:41;;;;;;;;;;;31.90;39.20;;;;;;5052836;28;19920;-88
2022/10/29 11:54:10;;;;;;;;;;;32.10;39.00;;;;;;5069793;28;19947;-90
2022/10/29 11:56:42;;;;;;;;;;;32.10;38.60;;;;;;5062160;28;19923;-90
2022/10/29 11:59:30;;;;;;;;;;;31.80;38.60;;;;;;5067045;28;20424;-87
2022/10/29 12:02:02;;;;;;;;;;;31.60;38.80;;;;;;5049838;28;19928;-89
2022/10/29 12:04:40;;;;;;;;;;;31.40;39.20;;;;;;5056155;28;19928;-88
2022/10/29 12:07:24;;;;;;;;;;;31.40;39.30;;;;;;5055390;28;19935;-88
2022/10/29 12:10:11;;;;;;;;;;;31.30;39.20;;;;;;5059616;28;19932;-89
2022/10/29 12:12:41;;;;;;;;;;;31.10;39.40;;;;;;5047658;28;19920;-87
2022/10/29 12:15:21;;;;;;;;;;;31.10;39.60;;;;;;5055282;28;20015;-91
2022/10/29 12:18:05;;;;;;;;;;;31.20;39.60;;;;;;5053177;28;19920;-89
2022/10/29 12:20:43;;;;;;;;;;;31.20;39.70;;;;;;5063264;28;19929;-89
2022/10/29 12:23:11;;;;;;;;;;;31.10;39.70;;;;;;5065982;28;19916;-89
2022/10/29 12:25:40;;;;;;;;;;;30.90;39.70;;;;;;5059204;28;19924;-89
2022/10/29 12:28:08;;;;;;;;;;;30.80;39.90;;;;;;5056920;28;19972;-88
2022/10/29 12:30:38;;;;;;;;;;;30.70;40.20;;;;;;5062553;28;19921;-88
2022/10/29 12:33:06;;;;;;;;;;;30.60;40.40;;;;;;5051322;28;20287;-87
2022/10/29 12:35:46;;;;;;;;;;;30.60;40.60;;;;;;5051736;28;19947;-88
2022/10/29 12:38:30;;;;;;;;;;;30.50;40.80;;;;;;5050965;28;20416;-88
2022/10/29 12:41:15;;;;;;;;;;;30.60;39.90;;;;;;5054443;28;19924;-89
2022/10/29 12:43:40;;;;;;;;;;;30.50;38.50;;;;;;5053307;28;20035;-90
2022/10/29 12:46:22;;;;;;;;;;;30.60;38.50;;;;;;5070181;28;20059;-88
2022/10/29 12:48:59;;;;;;;;;;;30.70;38.40;;;;;;5070964;28;20006;-88
2022/10/29 12:51:28;;;;;;;;;;;30.70;37.60;;;;;;5055220;28;19925;-87
2022/10/29 12:54:13;;;;;;;;;;;30.60;36.90;;;;;;5059519;28;20402;-88
2022/10/29 12:56:38;;;;;;;;;;;30.70;36.80;;;;;;5049704;28;19920;-87
2022/10/29 12:59:20;;;;;;;;;;;30.70;36.70;;;;;;5049414;28;19966;-89
2022/10/29 13:01:46;;;;;;;;;;;30.60;36.30;;;;;;5047834;28;19927;-87
2022/10/29 13:04:44;;;;;;;;;;;30.60;36.20;;;;;;5052255;28;20354;-87
2022/10/29 13:07:18;;;;;;;;;;;30.60;36.20;;;;;;5044484;28;20245;-87
2022/10/29 13:09:44;;;;;;;;;;;30.60;35.90;;;;;;5054003;28;19920;-88
2022/10/29 13:12:11;;;;;;;;;;;30.60;35.60;;;;;;5053885;28;19921;-88
2022/10/29 13:14:45;;;;;;;;;;;30.50;35.70;;;;;;5064711;28;19917;-88
2022/10/29 13:17:23;;;;;;;;;;;30.50;35.80;;;;;;5063274;28;19989;-88
2022/10/29 13:19:53;;;;;;;;;;;30.40;36.10;;;;;;5060324;28;19927;-88
2022/10/29 13:22:18;;;;;;;;;;;30.40;36.40;;;;;;5054838;28;19927;-88
2022/10/29 13:24:44;;;;;;;;;;;30.30;36.40;;;;;;5065788;28;20427;-87
2022/10/29 13:27:16;;;;;;;;;;;30.40;36.70;;;;;;5062502;28;19928;-87
2022/10/29 13:29:48;;;;;;;;;;;30.40;36.50;;;;;;5058355;28;21790;-87
2022/10/29 13:32:32;;;;;;;;;;;30.40;36.70;;;;;;5062640;28;20441;-88
2022/10/29 13:34:58;;;;;;;;;;;30.50;36.80;;;;;;5068772;28;19920;-89
2022/10/29 13:37:37;;;;;;;;;;;30.40;36.70;;;;;;5065584;28;19932;-89
2022/10/29 13:40:21;;;;;;;;;;;30.40;36.60;;;;;;5067165;28;19989;-88
2022/10/29 13:43:17;;;;;;;;;;;30.30;36.70;;;;;;5067462;28;20003;-88
2022/10/29 13:45:48;;;;;;;;;;;30.30;36.80;;;;;;5054729;28;19925;-90
2022/10/29 13:48:23;;;;;;;;;;;30.20;36.60;;;;;;5061426;28;19980;-89
2022/10/29 13:50:51;;;;;;;;;;;30.20;36.80;;;;;;5064389;28;20289;-90
2022/10/29 13:53:19;;;;;;;;;;;30.20;36.80;;;;;;5066796;28;20579;-89
2022/10/29 13:55:46;;;;;;;;;;;30.20;36.90;;;;;;5068593;28;19935;-93
2022/10/29 13:58:15;;;;;;;;;;;30.20;37.10;;;;;;5067431;28;20429;-92
2022/10/29 14:00:42;;;;;;;;;;;30.20;37.30;;;;;;5063312;28;20027;-89
2022/10/29 14:03:20;;;;;;;;;;;30.30;37.20;;;;;;5065580;28;19920;-90
2022/10/29 14:05:46;;;;;;;;;;;30.30;37.20;;;;;;5063361;28;19916;-88
2022/10/29 14:08:44;;;;;;;;;;;30.30;37.30;;;;;;5066068;28;19924;-88
2022/10/29 14:11:17;;;;;;;;;;;30.20;37.20;;;;;;5025206;28;19994;-88
2022/10/29 14:13:47;;;;;;;;;;;30.00;37.40;;;;;;5068074;28;19928;-87
2022/10/29 14:16:24;;;;;;;;;;;29.80;37.50;;;;;;5073418;28;21267;-89
2022/10/29 14:18:52;;;;;;;;;;;29.70;37.80;;;;;;5068190;28;19932;-87
2022/10/29 14:21:28;;;;;;;;;;;29.60;38.10;;;;;;5068736;28;20474;-88
2022/10/29 14:23:55;;;;;;;;;;;29.50;38.30;;;;;;5082891;28;19977;-89
2022/10/29 14:26:22;;;;;;;;;;;29.40;38.50;;;;;;5072128;28;19916;-89
2022/10/29 14:28:48;;;;;;;;;;;29.30;38.70;;;;;;5075402;28;19920;-89
2022/10/29 14:31:14;;;;;;;;;;;29.20;38.80;;;;;;5073592;28;19921;-88